Bernice Lind — WDC8364 — position and weather

sailwx.info

Track history (hours):
 
Tides and Currents Weather Stations Pressure Air Temp Water Temp Dewpoint Dewpoint Depression Visibility Wind Speed Wind Dir Waves Ship Positions

Bernice Lind

Owner: Riverview Equipment Company, LLC, Petaluma, CA. More information available from US FCC via Universal Licensing System and Coast Guard Vessel Documentation Center.

Last reported at 2016-May-26 02:33 UTC. Time now 2016-May-26 02:48 UTC.
Position N 37°46' W 122°23'.

Length 20 m; draft 2.4 m.

Type: Towing. MMSI: 367085890.

Date/timePositionNaut miles runAvg speedWind from/ knotsBaromVisibWave heightAir tempDewpointWater temp
2016-May-26 02:33N 37°46' W 122°23'4 4.3
2016-May-26 01:33N 37°51' W 122°24'5 5.1
2016-May-26 00:33N 37°56' W 122°25'5 4.9
2016-May-25 23:32N 38°00' W 122°24'4 4.1
2016-May-25 22:33N 38°03' W 122°19'4 3.8
2016-May-25 21:33N 38°04' W 122°15'2 0.4
2016-May-25 18:05N 38°06' W 122°16'2 3.5
2016-May-25 17:33N 38°04' W 122°14'  
2016-May-23 10:25N 38°05' W 121°44'  
2016-May-18 14:33N 38°05' W 121°44'1 0.0
2016-May-17 12:13N 38°06' W 121°44'  
Track history (hours):
 
Tides and Currents Weather Stations Pressure Air Temp Water Temp Dewpoint Dewpoint Depression Visibility Wind Speed Wind Dir Waves Ship Positions

Bernice Lind

Owner: Riverview Equipment Company, LLC, Petaluma, CA. More information available from US FCC via Universal Licensing System and Coast Guard Vessel Documentation Center.

Last reported at 2016-May-26 02:33 UTC. Time now 2016-May-26 02:48 UTC.
Position N 37°46' W 122°23'.

Length 20 m; draft 2.4 m.

Type: Towing. MMSI: 367085890.

Date/timePositionNaut miles runAvg speedWind from/ knotsBaromVisibWave heightAir tempDewpointWater temp
2016-May-26 02:33N 37°46' W 122°23'4 4.3
2016-May-26 01:33N 37°51' W 122°24'5 5.1
2016-May-26 00:33N 37°56' W 122°25'5 4.9
2016-May-25 23:32N 38°00' W 122°24'4 4.1
2016-May-25 22:33N 38°03' W 122°19'4 3.8
2016-May-25 21:33N 38°04' W 122°15'2 0.4
2016-May-25 18:05N 38°06' W 122°16'2 3.5
2016-May-25 17:33N 38°04' W 122°14'  
2016-May-23 10:25N 38°05' W 121°44'  
2016-May-18 14:33N 38°05' W 121°44'1 0.0
2016-May-17 12:13N 38°06' W 121°44'  

Dump ship's entire track history